map of BIK home
BIK - Airport
Location
City:  Biak, Papua, Indonesia
Name:Frans Kaisiepo International Airport
Old (Alt.):Mokmer Airport
ICAO:WABB
IATA:BIK

Details
Type:Airport (Aerodrome, Airfield)
Use:Public/Civil, International (customs port of entry)
Latitude:111'22"S (-1.189421)
Longitude:13606'22"E (136.106011)
Elevation:46 ft (14 m)
Variation:2.05E (WMM2015 magnetic declination)
-0.09 annual change
Runways:1
Longest:11713 × 148 ft (3570 × 45 m), paved

Time
Time Zone:UTC+9
Local Time:

Weather
METAR:WABB 240100Z 14006KT 9000 SCT018 29/26 Q1009
TAF:WABB 240500Z 2406/2512 10006KT 9999 SCT018
BECMG 2410/2412 04005KT

Related Locations
Nearby:
Farthest:CTP: 12215 mi / 19658 km
Carutapera [Aeropuerto Carutapera], MA, BR

Find:

   beyond  
but within

Other Information
Maps:
NOTAMs:
Links:
Sources:

  
flag of Indonesia
flag of Papua
  

Sectional Chart

Flight Planning
at skyvector.com

Satellite Image

Google Maps Satellite view

 

Copyright © 2004-2018 Karl L. Swartz. All rights reserved.
The Great Circle Mapper name and logo are trademarks of the Great Circle Mapper.
All other trademarks mentioned herein belong to their respective owners.
Please see credits for attibutions and further copyright information.

  Follow gcmap on Facebook Follow gcmap on Twitter Follow gcmap on Google+ GCmap on LinkedIn

hCard Microformat

Geo Microformat